Garden City, GA

10:32 PM EDT on July 30, 2016 (GMT -0400)
Savannah International | | Change Station

Elev 49 ft 32.13 °N, 81.20 °W | Updated 39 minutes ago

Partly Cloudy
Partly Cloudy
87 °F
Feels Like 94 °F
N
4
Wind Variable Wind from East

Today
High -- | Low -- °F
--% Chance of Precip.
Yesterday
High -- | Low -- °F
Precip. -- in
Pressure 30.02 in
Visibility 10.0 miles
Clouds Few 7500 ft
Heat Index 94 °F
Dew Point 73 °F
Humidity 63%
Rainfall 0.00 in
Snow Depth Not available.
6:38 AM 8:23 PM
Waning Crescent, 9% visible
METAR KSAV 310153Z 10003KT 10SM FEW075 31/23 A3002 RMK AO2 TSE40 SLP165 T03060228
Pressure 30.02 in
Visibility 10.0 miles
Clouds Few 7500 ft
Heat Index 94 °F
Dew Point 73 °F
Humidity 63%
Rainfall 0.00 in
Snow Depth Not available.
6:38 AM 8:23 PM
Waning Crescent, 9% visible
METAR KSAV 310153Z 10003KT 10SM FEW075 31/23 A3002 RMK AO2 TSE40 SLP165 T03060228

10-Day Weather Forecast

Almanac

Astronomy

Jul. 30, 2016 Rise Set
Actual Time
Civil Twilight
Nautical Twilight
Astronomical Twilight
Moon
Length of Visible Light
Length of Day
Tomorrow will be .
, % of the Moon is Illuminated

Today's Extremes

State Highs State Lows

Community

WunderPhotos

Upload Photos

1,928,714 photos uploaded!

WunderBlog® & News

Nearby

Air Quality

  Air Quality AQ Index Pollutant
Not available.

Snow Depth

Station Depth Elevation

Earthquake Activity

City Distance Mag. Time & Date
Minimum magnitude displayed is 2.5.

Coastal Water Temperatures

Place Temperature

Stations

Nearby Weather Stations

Station Location Temp. Windchill Dew Point Humidity Wind Precip. Elev Updated Type
                   

Watches & Warnings

There are currently no watches in effect.